Terminal Aerodrome Forecast
Issued by NWS Charleston, WV

Current Version | Previous Version | Text Only | Print | Product List | Glossary Off
Versions: 1 2 3 4 5 6 7 8 9 10 11 12 13 14 15 16 17 18 19 20 21 22 23 24

000
FTUS41 KRLX 221400 AAA
TAFPKB
TAF AMD
KPKB 221426Z 2214/2312 26008KT P6SM -SHRA OVC035
     FM221700 28010G20KT 6SM SHRA OVC035
     FM222100 31010G24KT P6SM SCT045
     FM230300 30010KT P6SM SCT035
     FM230600 29005KT P6SM SCT040=

USA.gov is the U.S. government's official web portal to all federal, state and local government web resources and services.